sensor_id;sensor_type;location;lat;lon;timestamp;P1;durP1;ratioP1;P2;durP2;ratioP2
65393;SDS011;52002;49.760;6.512;2024-03-22T00:01:13;6.00;;;2.90;;
65393;SDS011;52002;49.760;6.512;2024-03-22T00:03:38;5.80;;;2.70;;
65393;SDS011;52002;49.760;6.512;2024-03-22T00:06:03;4.90;;;2.70;;
65393;SDS011;52002;49.760;6.512;2024-03-22T00:08:29;6.30;;;2.90;;
65393;SDS011;52002;49.760;6.512;2024-03-22T00:10:55;4.40;;;2.80;;
65393;SDS011;52002;49.760;6.512;2024-03-22T00:13:20;4.60;;;2.70;;
65393;SDS011;52002;49.760;6.512;2024-03-22T00:15:45;6.20;;;3.00;;
65393;SDS011;52002;49.760;6.512;2024-03-22T00:18:11;8.60;;;3.40;;
65393;SDS011;52002;49.760;6.512;2024-03-22T00:20:36;5.00;;;2.80;;
65393;SDS011;52002;49.760;6.512;2024-03-22T00:23:02;7.10;;;2.70;;
65393;SDS011;52002;49.760;6.512;2024-03-22T00:25:27;6.00;;;3.30;;
65393;SDS011;52002;49.760;6.512;2024-03-22T00:27:53;9.10;;;2.50;;
65393;SDS011;52002;49.760;6.512;2024-03-22T00:30:20;5.30;;;2.80;;
65393;SDS011;52002;49.760;6.512;2024-03-22T00:32:45;11.00;;;2.70;;
65393;SDS011;52002;49.760;6.512;2024-03-22T00:35:11;6.70;;;3.10;;
65393;SDS011;52002;49.760;6.512;2024-03-22T00:37:36;5.70;;;3.00;;
65393;SDS011;52002;49.760;6.512;2024-03-22T00:40:01;8.70;;;2.20;;
65393;SDS011;52002;49.760;6.512;2024-03-22T00:42:27;8.30;;;2.70;;
65393;SDS011;52002;49.760;6.512;2024-03-22T00:44:52;6.40;;;2.70;;
65393;SDS011;52002;49.760;6.512;2024-03-22T00:47:18;4.60;;;2.90;;
65393;SDS011;52002;49.760;6.512;2024-03-22T00:49:43;4.20;;;2.60;;
65393;SDS011;52002;49.760;6.512;2024-03-22T00:52:09;7.10;;;3.20;;
65393;SDS011;52002;49.760;6.512;2024-03-22T00:54:34;6.50;;;3.00;;
65393;SDS011;52002;49.760;6.512;2024-03-22T00:56:59;6.40;;;2.90;;
65393;SDS011;52002;49.760;6.512;2024-03-22T00:59:26;7.40;;;3.40;;
65393;SDS011;52002;49.760;6.512;2024-03-22T01:01:52;8.20;;;3.00;;
65393;SDS011;52002;49.760;6.512;2024-03-22T01:04:17;5.60;;;3.10;;
65393;SDS011;52002;49.760;6.512;2024-03-22T01:06:42;9.00;;;3.60;;
65393;SDS011;52002;49.760;6.512;2024-03-22T01:09:08;7.60;;;2.70;;
65393;SDS011;52002;49.760;6.512;2024-03-22T01:11:33;4.80;;;2.50;;
65393;SDS011;52002;49.760;6.512;2024-03-22T01:13:59;5.90;;;2.60;;
65393;SDS011;52002;49.760;6.512;2024-03-22T01:16:24;7.40;;;2.40;;
65393;SDS011;52002;49.760;6.512;2024-03-22T01:18:49;5.10;;;2.70;;
65393;SDS011;52002;49.760;6.512;2024-03-22T01:21:15;3.70;;;2.50;;
65393;SDS011;52002;49.760;6.512;2024-03-22T01:23:40;6.30;;;2.80;;
65393;SDS011;52002;49.760;6.512;2024-03-22T01:26:06;5.40;;;2.90;;
65393;SDS011;52002;49.760;6.512;2024-03-22T01:28:31;4.50;;;2.90;;
65393;SDS011;52002;49.760;6.512;2024-03-22T01:30:56;5.70;;;3.20;;
65393;SDS011;52002;49.760;6.512;2024-03-22T01:33:22;8.70;;;2.80;;
65393;SDS011;52002;49.760;6.512;2024-03-22T01:35:47;9.90;;;2.90;;
65393;SDS011;52002;49.760;6.512;2024-03-22T01:38:12;6.40;;;2.60;;
65393;SDS011;52002;49.760;6.512;2024-03-22T01:40:38;8.00;;;3.00;;
65393;SDS011;52002;49.760;6.512;2024-03-22T01:43:03;8.10;;;2.50;;
65393;SDS011;52002;49.760;6.512;2024-03-22T01:45:32;4.40;;;2.60;;
65393;SDS011;52002;49.760;6.512;2024-03-22T01:47:59;5.30;;;2.70;;
65393;SDS011;52002;49.760;6.512;2024-03-22T01:50:25;9.00;;;2.80;;
65393;SDS011;52002;49.760;6.512;2024-03-22T01:52:52;9.00;;;2.80;;
65393;SDS011;52002;49.760;6.512;2024-03-22T01:55:18;7.60;;;3.20;;
65393;SDS011;52002;49.760;6.512;2024-03-22T01:57:43;4.20;;;2.90;;
65393;SDS011;52002;49.760;6.512;2024-03-22T02:00:09;4.00;;;2.70;;
65393;SDS011;52002;49.760;6.512;2024-03-22T02:02:35;4.50;;;3.00;;
65393;SDS011;52002;49.760;6.512;2024-03-22T02:05:16;6.10;;;2.80;;
65393;SDS011;52002;49.760;6.512;2024-03-22T02:07:44;5.50;;;3.00;;
65393;SDS011;52002;49.760;6.512;2024-03-22T02:10:11;4.40;;;2.90;;
65393;SDS011;52002;49.760;6.512;2024-03-22T02:12:40;4.40;;;2.50;;
65393;SDS011;52002;49.760;6.512;2024-03-22T02:15:06;4.20;;;2.60;;
65393;SDS011;52002;49.760;6.512;2024-03-22T02:17:33;4.30;;;2.90;;
65393;SDS011;52002;49.760;6.512;2024-03-22T02:19:59;6.70;;;2.60;;
65393;SDS011;52002;49.760;6.512;2024-03-22T02:22:26;8.30;;;3.20;;
65393;SDS011;52002;49.760;6.512;2024-03-22T02:24:52;5.70;;;3.00;;
65393;SDS011;52002;49.760;6.512;2024-03-22T02:27:18;5.50;;;3.00;;
65393;SDS011;52002;49.760;6.512;2024-03-22T02:29:43;7.10;;;2.90;;
65393;SDS011;52002;49.760;6.512;2024-03-22T02:32:09;5.00;;;2.70;;
65393;SDS011;52002;49.760;6.512;2024-03-22T02:34:34;7.10;;;3.30;;
65393;SDS011;52002;49.760;6.512;2024-03-22T02:37:00;7.40;;;2.90;;
65393;SDS011;52002;49.760;6.512;2024-03-22T02:39:25;5.50;;;2.60;;
65393;SDS011;52002;49.760;6.512;2024-03-22T02:41:51;5.40;;;2.60;;
65393;SDS011;52002;49.760;6.512;2024-03-22T02:44:16;5.20;;;2.60;;
65393;SDS011;52002;49.760;6.512;2024-03-22T02:46:42;6.60;;;2.60;;
65393;SDS011;52002;49.760;6.512;2024-03-22T02:49:07;10.20;;;2.30;;
65393;SDS011;52002;49.760;6.512;2024-03-22T02:51:32;3.90;;;2.40;;
65393;SDS011;52002;49.760;6.512;2024-03-22T02:53:58;4.60;;;2.60;;
65393;SDS011;52002;49.760;6.512;2024-03-22T02:56:23;6.00;;;2.70;;
65393;SDS011;52002;49.760;6.512;2024-03-22T02:58:49;4.30;;;2.50;;
65393;SDS011;52002;49.760;6.512;2024-03-22T03:01:15;4.10;;;2.50;;
65393;SDS011;52002;49.760;6.512;2024-03-22T03:03:40;6.40;;;3.00;;
65393;SDS011;52002;49.760;6.512;2024-03-22T03:06:06;3.90;;;2.50;;
65393;SDS011;52002;49.760;6.512;2024-03-22T03:08:31;5.60;;;3.00;;
65393;SDS011;52002;49.760;6.512;2024-03-22T03:10:57;3.80;;;2.40;;
65393;SDS011;52002;49.760;6.512;2024-03-22T03:13:22;4.30;;;2.80;;
65393;SDS011;52002;49.760;6.512;2024-03-22T03:15:47;7.10;;;2.60;;
65393;SDS011;52002;49.760;6.512;2024-03-22T03:18:13;6.30;;;3.10;;
65393;SDS011;52002;49.760;6.512;2024-03-22T03:20:38;5.80;;;2.60;;
65393;SDS011;52002;49.760;6.512;2024-03-22T03:23:04;7.90;;;2.80;;
65393;SDS011;52002;49.760;6.512;2024-03-22T03:25:29;4.50;;;2.50;;
65393;SDS011;52002;49.760;6.512;2024-03-22T03:27:54;5.50;;;2.80;;
65393;SDS011;52002;49.760;6.512;2024-03-22T03:30:20;5.40;;;2.20;;
65393;SDS011;52002;49.760;6.512;2024-03-22T03:32:45;6.20;;;2.80;;
65393;SDS011;52002;49.760;6.512;2024-03-22T03:35:11;5.40;;;2.70;;
65393;SDS011;52002;49.760;6.512;2024-03-22T03:37:36;8.20;;;2.80;;
65393;SDS011;52002;49.760;6.512;2024-03-22T03:40:02;5.30;;;2.80;;
65393;SDS011;52002;49.760;6.512;2024-03-22T03:42:27;3.60;;;2.30;;
65393;SDS011;52002;49.760;6.512;2024-03-22T03:44:53;6.60;;;2.60;;
65393;SDS011;52002;49.760;6.512;2024-03-22T03:47:18;5.10;;;2.50;;
65393;SDS011;52002;49.760;6.512;2024-03-22T03:49:46;6.50;;;2.40;;
65393;SDS011;52002;49.760;6.512;2024-03-22T03:52:12;5.50;;;3.00;;
65393;SDS011;52002;49.760;6.512;2024-03-22T03:54:38;7.20;;;2.70;;
65393;SDS011;52002;49.760;6.512;2024-03-22T03:57:04;6.30;;;3.30;;
65393;SDS011;52002;49.760;6.512;2024-03-22T03:59:29;6.20;;;3.20;;
65393;SDS011;52002;49.760;6.512;2024-03-22T04:01:55;4.80;;;2.80;;
65393;SDS011;52002;49.760;6.512;2024-03-22T04:04:20;5.10;;;2.70;;
65393;SDS011;52002;49.760;6.512;2024-03-22T04:06:45;8.40;;;3.10;;
65393;SDS011;52002;49.760;6.512;2024-03-22T04:09:11;7.00;;;3.20;;
65393;SDS011;52002;49.760;6.512;2024-03-22T04:11:36;5.00;;;2.80;;
65393;SDS011;52002;49.760;6.512;2024-03-22T04:14:03;3.60;;;2.50;;
65393;SDS011;52002;49.760;6.512;2024-03-22T04:16:30;4.90;;;2.70;;
65393;SDS011;52002;49.760;6.512;2024-03-22T04:18:56;5.40;;;2.60;;
65393;SDS011;52002;49.760;6.512;2024-03-22T04:21:21;6.20;;;2.60;;
65393;SDS011;52002;49.760;6.512;2024-03-22T04:23:47;6.80;;;3.00;;
65393;SDS011;52002;49.760;6.512;2024-03-22T04:26:12;4.60;;;2.60;;
65393;SDS011;52002;49.760;6.512;2024-03-22T04:28:38;9.50;;;3.20;;
65393;SDS011;52002;49.760;6.512;2024-03-22T04:31:04;7.80;;;3.10;;
65393;SDS011;52002;49.760;6.512;2024-03-22T04:33:33;5.20;;;3.10;;
65393;SDS011;52002;49.760;6.512;2024-03-22T04:35:59;4.60;;;2.90;;
65393;SDS011;52002;49.760;6.512;2024-03-22T04:38:26;5.70;;;2.90;;
65393;SDS011;52002;49.760;6.512;2024-03-22T04:40:52;4.90;;;2.70;;
65393;SDS011;52002;49.760;6.512;2024-03-22T04:43:18;7.20;;;2.90;;
65393;SDS011;52002;49.760;6.512;2024-03-22T04:45:44;5.50;;;2.70;;
65393;SDS011;52002;49.760;6.512;2024-03-22T04:48:12;5.80;;;2.90;;
65393;SDS011;52002;49.760;6.512;2024-03-22T04:50:38;7.20;;;2.90;;
65393;SDS011;52002;49.760;6.512;2024-03-22T04:53:04;6.70;;;3.20;;
65393;SDS011;52002;49.760;6.512;2024-03-22T04:55:30;5.60;;;2.90;;
65393;SDS011;52002;49.760;6.512;2024-03-22T04:57:58;6.00;;;3.10;;
65393;SDS011;52002;49.760;6.512;2024-03-22T05:00:23;5.40;;;3.30;;
65393;SDS011;52002;49.760;6.512;2024-03-22T05:02:50;4.10;;;2.70;;
65393;SDS011;52002;49.760;6.512;2024-03-22T05:05:18;9.90;;;3.30;;
65393;SDS011;52002;49.760;6.512;2024-03-22T05:07:44;6.00;;;3.10;;
65393;SDS011;52002;49.760;6.512;2024-03-22T05:10:09;5.40;;;2.90;;
65393;SDS011;52002;49.760;6.512;2024-03-22T05:12:35;5.20;;;3.00;;
65393;SDS011;52002;49.760;6.512;2024-03-22T05:15:05;7.40;;;2.60;;
65393;SDS011;52002;49.760;6.512;2024-03-22T05:17:31;4.00;;;2.50;;
65393;SDS011;52002;49.760;6.512;2024-03-22T05:19:58;4.00;;;2.40;;
65393;SDS011;52002;49.760;6.512;2024-03-22T05:22:24;4.30;;;2.60;;
65393;SDS011;52002;49.760;6.512;2024-03-22T05:24:49;10.50;;;3.00;;
65393;SDS011;52002;49.760;6.512;2024-03-22T05:27:15;8.50;;;3.00;;
65393;SDS011;52002;49.760;6.512;2024-03-22T05:29:40;4.30;;;2.80;;
65393;SDS011;52002;49.760;6.512;2024-03-22T05:32:06;6.20;;;3.00;;
65393;SDS011;52002;49.760;6.512;2024-03-22T05:34:31;6.10;;;2.80;;
65393;SDS011;52002;49.760;6.512;2024-03-22T05:36:57;6.60;;;2.60;;
65393;SDS011;52002;49.760;6.512;2024-03-22T05:39:22;4.10;;;2.90;;
65393;SDS011;52002;49.760;6.512;2024-03-22T05:41:47;6.90;;;2.70;;
65393;SDS011;52002;49.760;6.512;2024-03-22T05:44:13;4.80;;;2.30;;
65393;SDS011;52002;49.760;6.512;2024-03-22T05:46:38;5.30;;;2.40;;
65393;SDS011;52002;49.760;6.512;2024-03-22T05:49:04;5.50;;;2.80;;
65393;SDS011;52002;49.760;6.512;2024-03-22T05:51:29;8.70;;;3.30;;
65393;SDS011;52002;49.760;6.512;2024-03-22T05:53:57;8.20;;;2.80;;
65393;SDS011;52002;49.760;6.512;2024-03-22T05:56:23;6.50;;;2.90;;
65393;SDS011;52002;49.760;6.512;2024-03-22T05:58:48;5.30;;;2.60;;
65393;SDS011;52002;49.760;6.512;2024-03-22T06:01:13;7.50;;;2.90;;
65393;SDS011;52002;49.760;6.512;2024-03-22T06:03:39;4.20;;;2.70;;
65393;SDS011;52002;49.760;6.512;2024-03-22T06:06:04;5.60;;;2.90;;
65393;SDS011;52002;49.760;6.512;2024-03-22T06:08:30;5.50;;;3.00;;
65393;SDS011;52002;49.760;6.512;2024-03-22T06:11:00;7.00;;;3.10;;
65393;SDS011;52002;49.760;6.512;2024-03-22T06:13:26;6.20;;;2.70;;
65393;SDS011;52002;49.760;6.512;2024-03-22T06:15:51;3.80;;;2.50;;
65393;SDS011;52002;49.760;6.512;2024-03-22T06:18:17;4.50;;;2.70;;
65393;SDS011;52002;49.760;6.512;2024-03-22T06:20:42;8.50;;;3.40;;
65393;SDS011;52002;49.760;6.512;2024-03-22T06:23:08;13.90;;;3.10;;
65393;SDS011;52002;49.760;6.512;2024-03-22T06:25:35;6.70;;;3.00;;
65393;SDS011;52002;49.760;6.512;2024-03-22T06:28:01;10.60;;;3.30;;
65393;SDS011;52002;49.760;6.512;2024-03-22T06:30:27;8.40;;;2.60;;
65393;SDS011;52002;49.760;6.512;2024-03-22T06:32:53;6.50;;;3.00;;
65393;SDS011;52002;49.760;6.512;2024-03-22T06:35:19;5.80;;;2.90;;
65393;SDS011;52002;49.760;6.512;2024-03-22T06:37:44;8.70;;;2.90;;
65393;SDS011;52002;49.760;6.512;2024-03-22T06:40:10;5.40;;;3.10;;
65393;SDS011;52002;49.760;6.512;2024-03-22T06:42:36;6.10;;;2.70;;
65393;SDS011;52002;49.760;6.512;2024-03-22T06:45:02;5.60;;;2.80;;
65393;SDS011;52002;49.760;6.512;2024-03-22T06:47:28;5.70;;;2.80;;
65393;SDS011;52002;49.760;6.512;2024-03-22T06:49:53;12.70;;;3.40;;
65393;SDS011;52002;49.760;6.512;2024-03-22T06:52:19;4.80;;;2.70;;
65393;SDS011;52002;49.760;6.512;2024-03-22T06:54:45;9.70;;;3.20;;
65393;SDS011;52002;49.760;6.512;2024-03-22T06:57:10;7.90;;;3.80;;
65393;SDS011;52002;49.760;6.512;2024-03-22T06:59:36;7.00;;;3.40;;
65393;SDS011;52002;49.760;6.512;2024-03-22T07:02:01;7.80;;;3.30;;
65393;SDS011;52002;49.760;6.512;2024-03-22T07:04:27;14.80;;;4.20;;
65393;SDS011;52002;49.760;6.512;2024-03-22T07:06:52;8.20;;;4.60;;
65393;SDS011;52002;49.760;6.512;2024-03-22T07:09:18;6.60;;;3.70;;
65393;SDS011;52002;49.760;6.512;2024-03-22T07:11:43;9.60;;;3.60;;
65393;SDS011;52002;49.760;6.512;2024-03-22T07:14:09;9.50;;;3.60;;
65393;SDS011;52002;49.760;6.512;2024-03-22T07:16:34;8.40;;;3.70;;
65393;SDS011;52002;49.760;6.512;2024-03-22T07:19:02;5.40;;;3.30;;
65393;SDS011;52002;49.760;6.512;2024-03-22T07:21:28;8.50;;;3.30;;
65393;SDS011;52002;49.760;6.512;2024-03-22T07:23:54;6.00;;;3.60;;
65393;SDS011;52002;49.760;6.512;2024-03-22T07:26:20;8.40;;;4.00;;
65393;SDS011;52002;49.760;6.512;2024-03-22T07:28:45;8.30;;;4.00;;
65393;SDS011;52002;49.760;6.512;2024-03-22T07:31:11;11.20;;;4.80;;
65393;SDS011;52002;49.760;6.512;2024-03-22T07:33:36;15.60;;;4.30;;
65393;SDS011;52002;49.760;6.512;2024-03-22T07:36:04;7.30;;;3.90;;
65393;SDS011;52002;49.760;6.512;2024-03-22T07:38:30;8.60;;;3.90;;
65393;SDS011;52002;49.760;6.512;2024-03-22T07:40:55;8.50;;;4.30;;
65393;SDS011;52002;49.760;6.512;2024-03-22T07:43:20;8.20;;;4.50;;
65393;SDS011;52002;49.760;6.512;2024-03-22T07:45:46;8.90;;;4.00;;
65393;SDS011;52002;49.760;6.512;2024-03-22T07:48:11;6.80;;;4.70;;
65393;SDS011;52002;49.760;6.512;2024-03-22T07:50:37;7.50;;;4.30;;
65393;SDS011;52002;49.760;6.512;2024-03-22T07:53:02;11.20;;;4.70;;
65393;SDS011;52002;49.760;6.512;2024-03-22T07:55:28;12.20;;;5.00;;
65393;SDS011;52002;49.760;6.512;2024-03-22T07:57:53;10.40;;;5.10;;
65393;SDS011;52002;49.760;6.512;2024-03-22T08:00:18;14.90;;;4.80;;
65393;SDS011;52002;49.760;6.512;2024-03-22T08:02:44;8.70;;;4.50;;
65393;SDS011;52002;49.760;6.512;2024-03-22T08:05:10;9.40;;;4.30;;
65393;SDS011;52002;49.760;6.512;2024-03-22T08:07:35;17.00;;;4.60;;
65393;SDS011;52002;49.760;6.512;2024-03-22T08:10:01;7.40;;;3.90;;
65393;SDS011;52002;49.760;6.512;2024-03-22T08:12:27;11.10;;;4.20;;
65393;SDS011;52002;49.760;6.512;2024-03-22T08:14:53;7.50;;;4.30;;
65393;SDS011;52002;49.760;6.512;2024-03-22T08:17:19;19.80;;;4.70;;
65393;SDS011;52002;49.760;6.512;2024-03-22T08:19:44;10.00;;;4.70;;
65393;SDS011;52002;49.760;6.512;2024-03-22T08:22:10;11.50;;;4.20;;
65393;SDS011;52002;49.760;6.512;2024-03-22T08:24:36;11.80;;;4.50;;
65393;SDS011;52002;49.760;6.512;2024-03-22T08:27:02;13.20;;;4.50;;
65393;SDS011;52002;49.760;6.512;2024-03-22T08:29:28;9.80;;;4.40;;
65393;SDS011;52002;49.760;6.512;2024-03-22T08:31:54;9.60;;;4.40;;
65393;SDS011;52002;49.760;6.512;2024-03-22T08:34:20;7.90;;;4.00;;
65393;SDS011;52002;49.760;6.512;2024-03-22T08:36:46;7.40;;;4.30;;
65393;SDS011;52002;49.760;6.512;2024-03-22T08:39:11;7.30;;;4.70;;
65393;SDS011;52002;49.760;6.512;2024-03-22T08:41:37;7.00;;;4.50;;
65393;SDS011;52002;49.760;6.512;2024-03-22T08:44:03;6.80;;;4.50;;
65393;SDS011;52002;49.760;6.512;2024-03-22T08:46:28;11.90;;;4.30;;
65393;SDS011;52002;49.760;6.512;2024-03-22T08:48:54;6.00;;;4.40;;
65393;SDS011;52002;49.760;6.512;2024-03-22T08:51:20;10.70;;;4.60;;
65393;SDS011;52002;49.760;6.512;2024-03-22T08:53:46;6.70;;;4.50;;
65393;SDS011;52002;49.760;6.512;2024-03-22T08:56:11;10.00;;;4.10;;
65393;SDS011;52002;49.760;6.512;2024-03-22T08:58:37;8.30;;;4.40;;
65393;SDS011;52002;49.760;6.512;2024-03-22T09:01:02;8.90;;;4.40;;
65393;SDS011;52002;49.760;6.512;2024-03-22T09:03:27;7.20;;;4.30;;
65393;SDS011;52002;49.760;6.512;2024-03-22T09:05:53;9.30;;;4.40;;
65393;SDS011;52002;49.760;6.512;2024-03-22T09:08:19;6.60;;;4.50;;
65393;SDS011;52002;49.760;6.512;2024-03-22T09:10:46;8.00;;;4.10;;
65393;SDS011;52002;49.760;6.512;2024-03-22T09:13:12;9.40;;;4.50;;
65393;SDS011;52002;49.760;6.512;2024-03-22T09:15:38;6.80;;;4.60;;
65393;SDS011;52002;49.760;6.512;2024-03-22T09:18:04;5.90;;;4.40;;
65393;SDS011;52002;49.760;6.512;2024-03-22T09:20:30;7.50;;;4.50;;
65393;SDS011;52002;49.760;6.512;2024-03-22T09:22:56;10.40;;;4.70;;
65393;SDS011;52002;49.760;6.512;2024-03-22T09:25:23;10.80;;;4.90;;
65393;SDS011;52002;49.760;6.512;2024-03-22T09:27:49;8.40;;;5.30;;
65393;SDS011;52002;49.760;6.512;2024-03-22T09:30:15;9.10;;;5.00;;
65393;SDS011;52002;49.760;6.512;2024-03-22T09:32:40;9.10;;;5.10;;
65393;SDS011;52002;49.760;6.512;2024-03-22T09:35:07;13.20;;;5.90;;
65393;SDS011;52002;49.760;6.512;2024-03-22T09:37:33;19.00;;;5.20;;
65393;SDS011;52002;49.760;6.512;2024-03-22T09:39:59;10.40;;;5.40;;
65393;SDS011;52002;49.760;6.512;2024-03-22T09:42:24;12.50;;;5.40;;
65393;SDS011;52002;49.760;6.512;2024-03-22T09:44:51;10.80;;;4.90;;
65393;SDS011;52002;49.760;6.512;2024-03-22T09:47:17;11.50;;;5.30;;
65393;SDS011;52002;49.760;6.512;2024-03-22T09:49:43;8.50;;;5.00;;
65393;SDS011;52002;49.760;6.512;2024-03-22T09:52:14;8.40;;;4.70;;
65393;SDS011;52002;49.760;6.512;2024-03-22T09:54:44;12.40;;;5.20;;
65393;SDS011;52002;49.760;6.512;2024-03-22T09:57:18;11.80;;;5.70;;
65393;SDS011;52002;49.760;6.512;2024-03-22T09:59:46;7.80;;;5.60;;
65393;SDS011;52002;49.760;6.512;2024-03-22T10:02:12;13.00;;;5.30;;
65393;SDS011;52002;49.760;6.512;2024-03-22T10:04:41;8.40;;;5.30;;
65393;SDS011;52002;49.760;6.512;2024-03-22T10:07:07;11.10;;;5.90;;
65393;SDS011;52002;49.760;6.512;2024-03-22T10:09:35;11.90;;;6.20;;
65393;SDS011;52002;49.760;6.512;2024-03-22T10:12:00;9.40;;;6.00;;
65393;SDS011;52002;49.760;6.512;2024-03-22T10:14:26;9.10;;;6.10;;
65393;SDS011;52002;49.760;6.512;2024-03-22T10:16:54;11.90;;;6.20;;
65393;SDS011;52002;49.760;6.512;2024-03-22T10:19:20;10.80;;;5.90;;
65393;SDS011;52002;49.760;6.512;2024-03-22T10:21:47;12.30;;;5.90;;
65393;SDS011;52002;49.760;6.512;2024-03-22T10:24:24;14.40;;;6.40;;
65393;SDS011;52002;49.760;6.512;2024-03-22T10:26:49;11.20;;;6.10;;
65393;SDS011;52002;49.760;6.512;2024-03-22T10:29:15;15.50;;;7.20;;
65393;SDS011;52002;49.760;6.512;2024-03-22T10:31:41;16.30;;;7.30;;
65393;SDS011;52002;49.760;6.512;2024-03-22T10:34:07;14.30;;;6.30;;
65393;SDS011;52002;49.760;6.512;2024-03-22T10:36:34;15.20;;;6.50;;
65393;SDS011;52002;49.760;6.512;2024-03-22T10:38:59;11.00;;;6.30;;
65393;SDS011;52002;49.760;6.512;2024-03-22T10:41:26;13.80;;;6.70;;
65393;SDS011;52002;49.760;6.512;2024-03-22T10:43:52;12.30;;;7.00;;
65393;SDS011;52002;49.760;6.512;2024-03-22T10:46:19;15.00;;;6.90;;
65393;SDS011;52002;49.760;6.512;2024-03-22T10:48:46;11.10;;;6.90;;
65393;SDS011;52002;49.760;6.512;2024-03-22T10:51:12;15.30;;;7.30;;
65393;SDS011;52002;49.760;6.512;2024-03-22T10:53:40;11.80;;;7.40;;
65393;SDS011;52002;49.760;6.512;2024-03-22T10:56:06;12.00;;;7.00;;
65393;SDS011;52002;49.760;6.512;2024-03-22T10:58:34;17.20;;;7.70;;
65393;SDS011;52002;49.760;6.512;2024-03-22T11:01:05;14.30;;;7.50;;
65393;SDS011;52002;49.760;6.512;2024-03-22T11:03:30;12.40;;;7.60;;
65393;SDS011;52002;49.760;6.512;2024-03-22T11:05:56;14.40;;;8.00;;
65393;SDS011;52002;49.760;6.512;2024-03-22T11:08:25;14.10;;;8.00;;
65393;SDS011;52002;49.760;6.512;2024-03-22T11:10:52;15.40;;;7.70;;
65393;SDS011;52002;49.760;6.512;2024-03-22T11:13:18;16.50;;;7.90;;
65393;SDS011;52002;49.760;6.512;2024-03-22T11:15:47;15.70;;;6.90;;
65393;SDS011;52002;49.760;6.512;2024-03-22T11:18:13;15.00;;;7.00;;
65393;SDS011;52002;49.760;6.512;2024-03-22T11:20:38;13.40;;;8.00;;
65393;SDS011;52002;49.760;6.512;2024-03-22T11:23:04;15.00;;;7.90;;
65393;SDS011;52002;49.760;6.512;2024-03-22T11:25:33;11.60;;;7.60;;
65393;SDS011;52002;49.760;6.512;2024-03-22T11:27:59;14.90;;;8.10;;
65393;SDS011;52002;49.760;6.512;2024-03-22T11:30:28;14.80;;;7.60;;
65393;SDS011;52002;49.760;6.512;2024-03-22T11:32:54;14.70;;;7.10;;
65393;SDS011;52002;49.760;6.512;2024-03-22T11:35:21;19.00;;;8.40;;
65393;SDS011;52002;49.760;6.512;2024-03-22T11:37:47;13.30;;;8.20;;
65393;SDS011;52002;49.760;6.512;2024-03-22T11:40:14;13.60;;;7.60;;
65393;SDS011;52002;49.760;6.512;2024-03-22T11:42:41;11.10;;;7.80;;
65393;SDS011;52002;49.760;6.512;2024-03-22T11:45:10;14.80;;;7.50;;
65393;SDS011;52002;49.760;6.512;2024-03-22T11:47:37;13.30;;;7.90;;
65393;SDS011;52002;49.760;6.512;2024-03-22T11:50:02;13.20;;;8.10;;
65393;SDS011;52002;49.760;6.512;2024-03-22T11:52:28;15.30;;;8.50;;
65393;SDS011;52002;49.760;6.512;2024-03-22T11:54:54;15.40;;;8.20;;
65393;SDS011;52002;49.760;6.512;2024-03-22T11:57:21;17.00;;;8.40;;
65393;SDS011;52002;49.760;6.512;2024-03-22T11:59:47;16.00;;;8.80;;
65393;SDS011;52002;49.760;6.512;2024-03-22T12:02:12;12.30;;;7.20;;
65393;SDS011;52002;49.760;6.512;2024-03-22T12:04:47;14.10;;;7.90;;
65393;SDS011;52002;49.760;6.512;2024-03-22T12:07:13;14.50;;;8.10;;
65393;SDS011;52002;49.760;6.512;2024-03-22T12:09:39;15.80;;;7.70;;
65393;SDS011;52002;49.760;6.512;2024-03-22T12:12:10;12.30;;;8.10;;
65393;SDS011;52002;49.760;6.512;2024-03-22T12:14:37;13.20;;;8.50;;
65393;SDS011;52002;49.760;6.512;2024-03-22T12:17:04;18.00;;;8.70;;
65393;SDS011;52002;49.760;6.512;2024-03-22T12:19:30;13.60;;;9.30;;
65393;SDS011;52002;49.760;6.512;2024-03-22T12:21:55;13.90;;;8.60;;
65393;SDS011;52002;49.760;6.512;2024-03-22T12:24:21;16.70;;;9.60;;
65393;SDS011;52002;49.760;6.512;2024-03-22T12:26:47;12.60;;;8.30;;
65393;SDS011;52002;49.760;6.512;2024-03-22T12:29:13;16.50;;;8.70;;
65393;SDS011;52002;49.760;6.512;2024-03-22T12:31:40;14.70;;;9.20;;
65393;SDS011;52002;49.760;6.512;2024-03-22T12:34:06;23.50;;;9.30;;
65393;SDS011;52002;49.760;6.512;2024-03-22T12:36:31;17.60;;;8.80;;
65393;SDS011;52002;49.760;6.512;2024-03-22T12:38:58;11.70;;;8.00;;
65393;SDS011;52002;49.760;6.512;2024-03-22T12:41:24;13.70;;;7.80;;
65393;SDS011;52002;49.760;6.512;2024-03-22T12:43:50;12.10;;;6.90;;
65393;SDS011;52002;49.760;6.512;2024-03-22T12:46:15;14.00;;;6.90;;
65393;SDS011;52002;49.760;6.512;2024-03-22T12:48:41;12.40;;;6.30;;
65393;SDS011;52002;49.760;6.512;2024-03-22T12:51:06;17.20;;;6.90;;
65393;SDS011;52002;49.760;6.512;2024-03-22T12:53:32;13.70;;;7.20;;
65393;SDS011;52002;49.760;6.512;2024-03-22T12:55:58;10.70;;;6.70;;
65393;SDS011;52002;49.760;6.512;2024-03-22T12:58:23;12.80;;;6.70;;
65393;SDS011;52002;49.760;6.512;2024-03-22T13:00:49;13.60;;;6.30;;
65393;SDS011;52002;49.760;6.512;2024-03-22T13:03:14;17.00;;;6.30;;
65393;SDS011;52002;49.760;6.512;2024-03-22T13:05:41;11.80;;;6.40;;
65393;SDS011;52002;49.760;6.512;2024-03-22T13:08:07;9.80;;;6.10;;
65393;SDS011;52002;49.760;6.512;2024-03-22T13:10:33;11.60;;;6.40;;
65393;SDS011;52002;49.760;6.512;2024-03-22T13:12:58;13.90;;;6.90;;
65393;SDS011;52002;49.760;6.512;2024-03-22T13:15:24;9.20;;;5.80;;
65393;SDS011;52002;49.760;6.512;2024-03-22T13:17:50;15.30;;;6.70;;
65393;SDS011;52002;49.760;6.512;2024-03-22T13:20:17;8.90;;;6.10;;
65393;SDS011;52002;49.760;6.512;2024-03-22T13:22:43;11.20;;;6.00;;
65393;SDS011;52002;49.760;6.512;2024-03-22T13:25:09;12.20;;;7.20;;
65393;SDS011;52002;49.760;6.512;2024-03-22T13:27:36;13.10;;;6.60;;
65393;SDS011;52002;49.760;6.512;2024-03-22T13:30:06;11.20;;;6.10;;
65393;SDS011;52002;49.760;6.512;2024-03-22T13:32:36;12.40;;;5.80;;
65393;SDS011;52002;49.760;6.512;2024-03-22T13:35:03;8.30;;;4.80;;
65393;SDS011;52002;49.760;6.512;2024-03-22T13:37:30;8.20;;;5.10;;
65393;SDS011;52002;49.760;6.512;2024-03-22T13:39:55;10.00;;;5.40;;
65393;SDS011;52002;49.760;6.512;2024-03-22T13:42:21;8.20;;;4.40;;
65393;SDS011;52002;49.760;6.512;2024-03-22T13:44:46;10.10;;;5.20;;
65393;SDS011;52002;49.760;6.512;2024-03-22T13:47:12;10.60;;;4.90;;
65393;SDS011;52002;49.760;6.512;2024-03-22T13:49:37;9.70;;;5.20;;
65393;SDS011;52002;49.760;6.512;2024-03-22T13:52:06;11.40;;;4.80;;
65393;SDS011;52002;49.760;6.512;2024-03-22T13:54:32;7.80;;;4.40;;
65393;SDS011;52002;49.760;6.512;2024-03-22T13:56:57;12.60;;;4.70;;
65393;SDS011;52002;49.760;6.512;2024-03-22T13:59:23;8.80;;;5.20;;
65393;SDS011;52002;49.760;6.512;2024-03-22T14:01:48;9.50;;;4.90;;
65393;SDS011;52002;49.760;6.512;2024-03-22T14:04:13;8.50;;;4.30;;
65393;SDS011;52002;49.760;6.512;2024-03-22T14:06:40;8.10;;;3.70;;
65393;SDS011;52002;49.760;6.512;2024-03-22T14:09:07;6.30;;;3.20;;
65393;SDS011;52002;49.760;6.512;2024-03-22T14:11:35;5.80;;;3.20;;
65393;SDS011;52002;49.760;6.512;2024-03-22T14:14:01;5.90;;;3.20;;
65393;SDS011;52002;49.760;6.512;2024-03-22T14:16:27;5.80;;;3.10;;
65393;SDS011;52002;49.760;6.512;2024-03-22T14:18:52;5.20;;;3.10;;
65393;SDS011;52002;49.760;6.512;2024-03-22T14:21:18;6.80;;;3.20;;
65393;SDS011;52002;49.760;6.512;2024-03-22T14:23:47;6.90;;;3.20;;
65393;SDS011;52002;49.760;6.512;2024-03-22T14:26:15;7.30;;;3.20;;
65393;SDS011;52002;49.760;6.512;2024-03-22T14:28:41;5.50;;;3.00;;
65393;SDS011;52002;49.760;6.512;2024-03-22T14:31:07;6.70;;;3.30;;
65393;SDS011;52002;49.760;6.512;2024-03-22T14:33:34;10.00;;;3.50;;
65393;SDS011;52002;49.760;6.512;2024-03-22T14:36:00;5.70;;;3.70;;